Date,TemperatureHighF,TemperatureAvgF,TemperatureLowF,DewpointHighF,DewpointAvgF,DewpointLowF,HumidityHigh,HumidityAvg,HumidityLow,PressureMaxIn,PressureMinIn,WindSpeedMaxMPH,WindSpeedAvgMPH,GustSpeedMaxMPH,PrecipitationSumIn
2012-1-1,55.6,48.9,40.7,37.5,33.9,31.1,78,57,45,30.25,30.02,12,5,12,0.00
2012-1-2,52.2,44.0,38.5,40.2,33.5,30.1,81,67,46,30.02,29.87,4,0,4,0.04
2012-1-3,49.1,49.1,49.1,42.2,42.2,42.0,77,77,77,30.12,30.12,2,2,3,0.00
2012-1-4,52.2,47.3,41.0,48.9,43.6,37.0,90,87,77,30.15,29.98,13,2,13,0.65
2012-1-5,50.0,44.6,38.3,44.6,39.4,33.8,88,82,73,30.33,30.12,17,3,17,0.05
2012-1-6,43.6,40.4,38.2,38.7,35.8,34.3,88,84,77,30.32,30.22,5,0,5,0.01
2012-1-7,47.0,42.4,38.3,42.4,38.7,34.9,89,86,82,30.42,30.29,3,0,3,0.00
2012-1-8,50.9,45.3,41.6,46.6,41.2,38.2,89,86,80,30.33,30.18,4,0,4,0.00
2012-1-9,50.4,46.1,41.4,45.4,41.6,38.7,90,84,80,30.21,30.17,7,1,7,0.01
2012-1-10,45.7,38.6,30.2,39.6,34.4,26.8,90,85,71,30.46,30.21,2,0,2,0.02
2012-1-11,29.5,29.3,29.0,26.1,26.0,25.6,88,87,87,30.45,30.45,1,0,1,0.00
2012-1-12,35.3,34.6,34.2,28.5,28.1,27.6,78,77,76,30.25,30.24,1,0,1,0.00
2012-1-13,41.0,36.7,28.1,34.4,31.3,24.4,87,81,75,30.28,30.01,2,0,2,0.01
2012-1-14,40.7,36.1,33.8,38.0,32.6,30.2,90,87,82,30.02,29.84,11,1,11,0.34
2012-1-15,35.8,32.3,24.5,32.4,29.0,21.4,89,87,85,30.04,29.91,7,0,7,0.02
2012-1-16,35.3,31.5,24.3,31.8,28.4,21.2,90,88,86,30.06,29.87,12,1,12,0.02
2012-1-17,36.4,34.2,32.0,33.1,31.3,29.3,91,89,86,29.93,29.76,14,2,14,0.14
2012-1-18,34.6,30.8,27.9,31.0,27.9,25.1,90,89,86,29.93,29.59,2,0,3,0.00
2012-1-19,30.4,28.0,26.8,27.5,25.1,23.6,91,89,87,29.75,29.55,3,0,3,0.00
2012-1-20,42.7,37.7,30.4,38.7,34.8,27.6,90,89,85,29.72,29.02,11,2,11,0.90
2012-1-21,45.4,41.7,38.7,42.0,37.3,33.7,93,84,78,29.86,29.00,16,3,16,0.10
2012-1-22,44.1,39.8,35.6,38.5,34.7,31.1,87,82,69,29.86,29.41,19,2,19,0.24
2012-1-23,49.0,40.1,34.6,40.3,34.7,31.0,90,81,68,30.01,29.77,9,1,9,0.00
2012-1-24,51.5,42.5,35.5,48.0,38.8,31.2,92,87,78,29.97,29.61,19,2,19,0.19
2012-1-25,48.2,46.8,45.7,41.3,40.2,38.8,78,78,77,29.94,29.83,20,7,20,0.00
2012-1-26,38.7,33.8,30.6,34.0,30.0,27.6,88,86,83,30.55,30.47,1,0,1,0.00
2012-1-27,45.4,34.7,28.4,37.0,29.7,25.4,89,82,66,30.59,30.45,3,0,3,0.00
2012-1-28,45.4,38.8,31.7,37.5,33.3,27.7,87,81,71,30.45,30.05,8,1,8,0.00
2012-1-29,50.6,46.9,40.0,47.7,43.9,35.2,91,89,82,30.05,29.73,13,2,13,0.72
2012-1-30,49.3,46.4,44.1,44.9,42.3,40.1,92,86,78,30.01,29.77,11,2,11,0.16
2012-1-31,48.8,45.0,43.6,41.1,40.3,39.7,88,84,75,29.98,29.85,10,1,10,0.05
2012-2-1,49.9,44.2,39.4,45.6,40.4,36.5,90,86,80,30.42,29.81,7,0,7,0.57
2012-2-2,49.0,40.4,35.3,42.0,35.9,31.7,91,84,69,30.43,30.21,3,0,3,0.01
2012-2-3,59.2,45.2,32.0,43.1,32.4,27.1,89,64,41,30.21,30.06,13,2,13,0.01
2012-2-4,61.2,51.0,38.9,37.5,29.8,25.7,63,45,35,30.19,30.10,14,3,15,0.00
2012-2-5,60.1,46.9,35.3,39.1,31.0,24.7,73,55,42,30.22,30.09,12,1,12,0.00
2012-2-6,62.1,43.8,30.6,38.1,29.0,23.2,83,60,33,30.09,29.88,10,1,10,0.00
2012-2-7,59.6,42.3,32.6,36.4,26.9,23.0,72,56,37,29.98,29.84,10,1,15,0.00
2012-2-8,51.8,47.7,43.6,44.1,38.5,28.8,81,71,43,30.24,29.99,9,1,11,0.07
2012-2-9,51.1,48.1,45.5,45.6,42.6,40.1,85,81,76,30.23,29.99,2,0,2,0.16
2012-2-10,59.2,48.8,45.4,47.4,42.1,40.1,84,78,61,30.03,29.89,8,1,8,0.15
2012-2-11,50.2,46.9,43.9,44.3,41.8,39.5,87,82,76,30.13,30.02,10,1,10,0.02
2012-2-12,51.7,46.0,43.0,42.8,39.7,38.5,86,79,68,30.09,29.86,5,0,5,0.02
2012-2-13,47.3,44.1,42.5,43.0,40.6,38.6,89,87,85,30.01,29.89,4,0,4,0.19
2012-2-14,45.9,41.5,34.9,40.3,37.4,31.1,89,85,78,30.14,29.87,7,1,7,0.06
2012-2-15,39.4,36.9,34.9,34.4,33.1,31.7,89,86,80,30.33,30.14,5,0,5,0.00
2012-2-16,46.1,41.9,36.9,42.5,38.6,33.3,91,88,86,30.25,30.16,4,0,4,0.12
2012-2-17,54.7,45.7,41.2,48.7,42.1,38.4,91,87,75,30.22,29.79,12,1,12,0.39
2012-2-18,43.7,42.1,40.3,40.2,38.2,36.6,89,86,82,30.01,29.85,20,4,20,0.52
2012-2-19,46.6,42.1,36.5,38.9,36.4,30.8,89,80,70,30.06,29.86,8,1,8,0.01
2012-2-20,46.1,41.7,35.5,43.7,37.6,30.1,91,85,80,29.98,29.82,5,0,5,0.30
2012-2-21,50.4,48.6,46.1,46.9,45.7,43.7,92,90,86,30.04,29.94,16,3,16,0.73
2012-2-22,53.8,47.7,42.3,47.2,41.9,36.5,89,81,66,30.27,29.89,14,2,14,0.07
2012-2-23,51.8,44.0,36.5,42.1,36.6,32.3,86,75,64,30.35,30.24,8,1,8,0.00
2012-2-24,46.6,43.8,40.7,42.1,38.9,35.2,88,83,78,30.24,29.53,9,1,9,0.44
2012-2-25,45.0,39.0,33.8,40.4,35.5,31.1,91,87,83,30.12,29.53,11,1,11,0.93
2012-2-26,43.9,36.7,29.2,37.8,31.8,25.2,90,83,67,30.15,30.06,8,1,8,0.00
2012-2-27,45.4,34.6,25.6,34.5,27.4,22.2,88,76,58,30.16,29.91,6,0,6,0.01
2012-2-28,47.7,38.3,30.4,32.1,29.1,25.8,83,70,50,29.91,29.41,17,3,17,0.13
2012-2-29,43.4,38.2,34.2,38.3,33.4,30.1,87,83,78,29.76,29.47,14,2,14,0.11
2012-3-1,48.2,39.9,37.4,39.1,34.6,32.4,85,81,67,30.16,29.75,8,2,8,0.02
2012-3-2,44.3,43.8,43.6,41.0,40.5,40.2,89,88,88,30.31,30.27,4,1,4,0.00
2012-3-3,56.2,49.0,44.3,47.6,43.7,40.8,90,82,71,30.32,30.26,14,3,14,0.00
2012-3-4,52.7,48.6,46.4,44.9,42.2,40.6,86,79,71,30.30,29.93,11,2,11,0.02
2012-3-5,47.2,41.5,34.6,41.4,36.7,30.3,87,83,78,29.93,29.66,17,2,17,0.22
2012-3-6,44.1,37.6,31.1,37.2,28.8,20.6,88,72,42,30.31,29.85,8,0,8,0.04
2012-3-7,50.6,38.4,27.4,35.7,27.4,22.7,85,66,44,30.44,30.30,4,0,4,0.01
2012-3-8,60.1,44.6,29.3,43.8,35.0,24.8,84,70,50,30.33,30.11,6,0,6,0.00
2012-3-9,53.1,47.5,43.2,44.0,41.3,36.8,88,79,68,30.19,29.91,9,1,9,0.22
2012-3-10,48.1,45.9,44.5,43.9,42.3,40.9,89,87,84,29.91,29.58,9,1,9,0.44
2012-3-11,47.2,42.5,38.3,41.9,37.5,32.7,89,82,72,29.71,29.52,15,3,15,0.25
2012-3-12,44.3,41.2,36.7,39.9,35.1,30.6,88,79,63,29.62,29.28,20,3,20,0.84
2012-3-13,44.3,37.7,34.2,38.4,33.6,31.1,89,85,73,29.81,29.31,17,2,17,0.24
2012-3-14,35.6,35.4,35.1,32.0,31.7,31.2,87,86,86,29.81,29.77,4,1,4,0.00
2012-3-15,53.5,47.7,43.7,48.6,43.9,40.4,91,87,83,29.63,29.45,17,3,17,0.84
2012-3-16,52.9,45.4,40.9,44.6,39.7,36.8,89,81,65,29.68,29.33,15,2,15,0.12
2012-3-17,49.0,42.7,37.8,42.9,37.7,34.2,88,83,74,29.62,29.29,7,1,7,0.34
2012-3-18,44.5,39.9,35.6,39.0,35.9,31.9,90,85,79,29.81,29.56,5,0,5,0.24
2012-3-19,50.8,41.2,31.1,39.2,34.3,27.9,89,77,57,29.87,29.58,8,1,8,0.00
2012-3-20,50.6,43.2,37.6,40.3,37.0,33.2,88,79,62,29.89,29.45,19,4,19,0.21
2012-3-21,52.7,43.2,36.2,41.4,33.3,26.3,86,70,40,29.96,29.76,10,1,10,0.01
2012-3-22,53.6,41.1,35.6,40.7,32.8,29.5,85,73,47,30.01,29.76,3,0,4,0.25
2012-3-23,58.0,43.4,30.1,41.3,31.5,25.6,84,65,37,30.03,29.91,6,0,6,0.00
2012-3-24,62.5,45.1,31.9,43.4,32.8,26.3,82,65,36,30.01,29.84,5,0,5,0.00
2012-3-25,59.8,55.1,41.0,43.2,40.6,35.3,80,59,49,29.77,29.67,6,1,6,0.00
2012-3-26,56.0,49.6,44.8,42.8,39.9,35.6,82,70,54,29.78,29.69,12,2,12,0.02
2012-3-27,62.1,53.2,42.7,42.5,39.8,34.0,77,61,47,29.70,29.44,18,3,18,0.03
2012-3-28,56.5,49.7,45.2,43.9,40.8,37.5,80,72,59,29.77,29.48,20,2,20,0.18
2012-3-29,50.4,47.3,45.0,45.6,42.2,38.8,88,82,77,29.65,29.38,11,1,11,0.86
2012-3-30,53.3,46.6,40.3,45.9,41.2,35.2,89,82,74,29.73,29.42,16,2,16,0.14
2012-3-31,50.8,42.9,38.9,45.2,38.9,34.8,89,85,78,29.67,29.37,7,0,7,0.35
2012-4-1,52.9,46.3,41.8,43.5,39.9,37.3,88,79,68,30.15,29.45,15,3,15,0.06
2012-4-2,65.5,53.7,42.3,43.6,38.2,34.7,78,58,40,30.19,29.83,14,3,14,0.00
2012-4-3,55.4,49.0,39.2,42.3,36.9,33.0,83,64,46,29.95,29.68,12,2,12,0.17
2012-4-4,55.1,44.8,37.8,42.7,36.4,33.8,87,74,51,30.05,29.90,8,1,8,0.00
2012-4-5,52.0,43.4,39.2,45.1,37.5,34.1,86,80,68,30.12,30.04,4,0,4,0.49
2012-4-6,53.3,44.5,38.7,41.7,37.8,33.1,87,78,59,30.25,30.11,5,0,5,0.01
2012-4-7,61.9,47.9,31.5,40.6,32.3,27.5,86,59,34,30.25,30.12,6,1,6,0.00
2012-4-8,71.1,62.3,38.9,40.7,34.4,29.6,71,38,27,30.14,29.96,11,2,11,0.00
2012-4-9,71.3,62.0,43.0,45.4,38.9,31.6,68,44,31,29.95,29.80,10,1,10,0.00
2012-4-10,68.8,59.3,46.6,49.6,44.0,37.3,77,58,45,29.79,29.68,8,1,8,0.00
2012-4-11,56.9,51.4,48.8,47.7,45.4,41.1,85,80,61,29.75,29.61,5,1,5,0.26
2012-4-12,67.5,52.1,41.4,51.5,43.7,36.5,88,74,49,29.79,29.66,17,1,17,0.05
2012-4-13,59.4,48.2,35.6,47.3,38.3,31.8,88,70,48,29.87,29.77,9,1,9,0.01
2012-4-14,65.0,51.7,36.0,49.2,40.6,31.0,84,67,53,30.11,29.87,10,1,10,0.00
2012-4-15,63.5,54.9,47.2,47.2,41.6,38.4,75,62,44,30.16,29.94,7,1,7,0.00
2012-4-16,63.2,53.3,46.4,50.8,43.8,38.0,86,71,57,30.16,29.82,18,2,18,0.15
2012-4-17,56.3,49.4,42.7,43.0,39.9,35.9,81,70,55,30.16,29.96,8,1,8,0.02
2012-4-18,60.8,50.5,45.7,47.3,41.8,38.8,85,73,54,30.04,29.92,11,2,11,0.07
2012-4-19,61.4,49.3,40.7,50.0,43.4,35.6,88,81,54,30.05,29.95,10,1,10,0.30
2012-4-20,60.3,52.6,45.2,50.2,45.8,39.4,88,78,55,30.21,29.97,10,2,10,0.44
2012-4-21,70.7,61.8,39.2,52.2,47.3,35.1,87,60,46,30.16,29.96,7,1,7,0.00
2012-4-22,76.0,61.5,46.6,55.7,48.2,41.1,82,63,45,29.97,29.83,7,1,7,0.00
2012-4-23,75.1,62.1,48.2,56.7,49.6,42.1,82,65,48,29.87,29.78,10,1,10,0.00
2012-4-24,60.5,56.3,52.4,51.7,48.9,46.4,84,76,70,29.89,29.77,10,1,10,0.07
2012-4-25,64.6,57.1,51.8,58.0,52.5,47.7,88,85,77,29.78,29.56,8,0,8,0.59
2012-4-26,59.6,53.5,50.0,50.1,46.6,40.1,89,78,54,29.80,29.55,12,2,12,0.33
2012-4-27,50.8,49.8,49.1,42.2,41.8,41.2,77,74,70,30.25,30.23,4,1,4,0.00
2012-4-28,66.6,58.1,47.0,51.0,46.0,41.5,82,65,51,30.24,30.14,9,1,9,0.00
2012-4-29,65.0,57.0,51.8,53.6,49.1,46.8,86,75,61,30.14,29.74,4,0,4,0.06
2012-4-30,59.6,52.4,47.7,50.4,45.0,40.0,88,76,59,29.85,29.60,20,4,20,0.34
2012-5-1,60.1,50.5,45.0,43.3,40.8,39.2,82,70,53,29.92,29.85,14,3,14,0.16
2012-5-2,61.2,51.5,43.7,45.7,41.2,37.4,85,69,47,29.95,29.71,7,1,7,0.11
2012-5-3,57.2,50.9,46.4,50.8,45.5,41.3,86,82,75,29.89,29.55,9,0,9,0.70
2012-5-4,57.4,48.7,44.3,46.9,42.9,39.9,86,81,63,30.30,29.89,8,1,8,0.34
2012-5-5,62.3,51.0,43.6,47.8,41.5,37.2,87,72,46,30.43,30.30,7,1,7,0.01
2012-5-6,66.4,53.4,37.1,49.1,40.4,32.7,85,64,40,30.43,30.30,8,1,8,0.00
2012-5-7,77.0,61.0,41.4,54.1,45.9,35.9,83,60,33,30.30,30.03,8,1,8,0.00
2012-5-8,71.6,58.5,48.6,52.9,45.1,36.7,80,62,42,30.09,30.02,8,1,8,0.00
2012-5-9,62.1,50.6,42.1,44.3,38.0,34.1,78,62,45,30.26,30.09,10,1,10,0.04
2012-5-10,59.9,49.4,37.1,37.4,33.3,31.2,81,56,37,30.33,30.24,7,1,8,0.01
2012-5-11,67.7,53.5,35.3,44.1,36.6,29.1,80,55,35,30.26,30.10,8,1,8,0.00
2012-5-12,78.8,55.9,39.6,51.0,40.2,32.8,79,59,26,30.13,30.05,6,1,6,0.00
2012-5-13,79.4,65.3,45.4,52.7,44.5,37.9,77,50,30,30.11,29.99,5,1,5,0.00
2012-5-14,81.4,67.2,48.1,55.0,47.1,39.4,74,50,31,30.00,29.92,4,1,4,0.00
2012-5-15,77.9,63.9,47.9,55.7,46.3,37.0,78,55,35,30.04,29.97,4,1,4,0.00
2012-5-16,73.1,62.3,49.0,49.8,42.7,34.7,69,49,40,30.03,29.96,4,1,4,0.01
2012-5-17,66.2,58.4,45.5,48.0,42.6,37.4,74,57,41,30.00,29.92,6,1,6,0.00
2012-5-18,63.0,55.3,46.4,44.6,40.7,37.2,71,58,46,30.11,30.00,7,2,7,0.00
2012-5-19,70.7,58.6,40.3,49.1,42.1,34.3,80,57,37,30.05,29.96,3,0,3,0.01
2012-5-20,62.5,58.4,53.5,54.6,50.9,44.1,86,76,59,29.96,29.84,4,0,4,0.21
2012-5-21,64.8,58.5,53.3,59.5,53.9,48.0,88,85,81,29.86,29.70,11,2,11,0.41
2012-5-22,58.0,54.0,50.4,50.8,47.6,45.1,84,79,72,29.84,29.58,10,2,10,0.16
2012-5-23,51.5,50.0,49.1,47.4,45.7,44.7,87,85,84,29.34,29.12,9,3,9,0.02
2012-5-24,63.4,56.5,48.4,50.8,45.8,43.1,88,69,51,29.81,29.67,3,1,3,0.27
2012-5-28,67.7,59.7,50.9,52.7,46.5,43.5,76,62,50,30.09,30.03,12,2,12,0.01
2012-5-29,65.7,56.9,49.5,49.3,44.6,41.2,82,65,46,30.14,30.08,6,0,6,0.01
2012-5-30,71.5,60.5,50.0,51.0,46.7,41.9,79,62,43,30.21,30.10,8,1,8,0.00
2012-5-31,67.0,61.0,56.5,58.4,54.5,49.0,85,79,72,30.11,29.97,5,0,5,0.21
2012-6-1,73.1,63.7,56.2,63.6,57.5,50.8,90,81,66,29.97,29.86,11,2,11,0.21
2012-6-2,68.9,59.5,53.3,56.3,50.5,43.8,88,73,53,29.94,29.83,10,1,10,0.01
2012-6-3,67.5,58.2,49.9,49.8,44.6,41.7,80,62,41,29.97,29.85,8,1,8,0.00
2012-6-4,56.7,52.8,48.2,49.7,46.0,40.2,83,78,65,29.86,29.69,5,0,5,0.05
2012-6-5,58.7,52.1,48.8,52.2,47.2,44.7,88,84,75,30.18,29.78,7,1,7,0.95
2012-6-6,65.0,56.2,47.5,52.6,46.2,43.1,88,71,51,30.16,29.96,14,1,14,0.03
2012-6-7,64.3,54.8,49.3,55.8,46.9,41.4,85,75,64,29.96,29.77,13,1,13,0.43
2012-6-8,64.8,55.7,48.8,51.8,46.8,43.8,86,73,55,29.96,29.90,12,2,12,0.11
2012-6-9,65.2,57.6,49.1,51.8,48.4,45.4,87,72,60,30.19,30.04,6,2,6,0.00
2012-6-10,69.3,61.4,52.0,50.9,47.4,43.3,74,61,50,30.23,30.17,7,1,7,0.00
2012-6-11,76.9,65.3,47.0,56.3,49.7,41.3,84,59,38,30.17,30.03,8,1,8,0.00
2012-6-12,68.2,62.4,57.4,59.1,53.4,49.2,80,73,56,30.04,29.94,10,1,10,0.03
2012-6-13,66.4,57.5,51.3,52.1,48.5,44.4,80,72,57,30.15,29.98,11,2,11,0.00
2012-6-14,51.5,51.0,50.8,44.6,44.4,44.1,79,78,77,30.11,30.08,2,0,2,0.00
2012-6-15,74.7,68.5,63.0,52.0,50.7,48.8,67,54,40,30.12,30.10,5,0,5,0.00
2012-6-16,76.0,66.2,61.4,64.2,57.0,51.5,79,72,66,30.11,29.97,16,2,16,0.01
2012-6-17,57.2,56.4,55.6,48.4,47.8,46.9,73,73,72,29.86,29.83,10,4,10,0.00
2012-6-18,65.9,56.4,51.8,55.1,48.9,46.6,86,76,63,30.00,29.80,10,1,10,0.34
2012-6-19,68.0,57.7,51.5,55.3,49.9,45.9,88,76,57,30.11,29.99,5,0,5,0.01
2012-6-20,77.8,64.1,45.4,57.5,50.3,41.1,88,63,39,30.11,29.89,8,1,8,0.00
2012-6-21,78.3,66.8,51.8,58.6,52.8,45.2,80,62,48,29.91,29.75,6,1,6,0.00
2012-6-22,57.2,55.9,55.4,52.1,51.5,50.9,87,85,83,29.73,29.66,2,0,2,0.30
2012-6-23,68.6,57.5,50.0,60.6,52.3,45.9,90,83,72,29.90,29.67,14,1,14,0.47
2012-6-24,70.9,58.7,49.3,56.5,49.4,45.0,90,73,49,30.02,29.88,7,1,7,0.00
2012-6-25,70.6,58.7,46.1,55.5,49.5,41.2,87,72,57,29.99,29.89,6,1,6,0.00
2012-6-26,62.5,56.9,53.8,55.9,51.8,49.4,86,83,78,30.02,29.87,4,0,4,0.24
2012-6-27,75.1,63.3,45.5,56.7,49.4,42.2,90,64,38,30.02,29.87,7,1,7,0.01
2012-6-28,82.1,66.9,50.4,59.6,52.4,45.1,83,61,42,30.00,29.86,9,1,9,0.00
2012-6-29,77.2,67.7,60.8,61.4,57.3,52.6,80,70,56,30.05,29.97,8,1,8,0.00
2012-6-30,74.9,65.8,58.1,66.5,59.6,52.6,86,80,72,29.99,29.88,7,1,7,0.16
2012-7-1,69.7,60.4,54.9,58.4,53.2,48.8,88,78,62,30.03,29.93,5,1,5,0.05
2012-7-2,70.6,61.3,54.0,56.4,51.5,47.6,82,71,55,29.99,29.84,6,1,6,0.04
2012-7-3,67.3,58.9,54.0,55.8,51.5,49.6,87,77,58,30.11,29.80,19,3,19,0.46
2012-7-4,72.5,61.3,49.1,55.7,49.9,44.8,88,68,50,30.10,29.92,12,1,12,0.00
2012-7-5,77.6,64.7,46.6,56.3,49.4,41.1,84,60,41,29.99,29.94,9,1,9,0.00
2012-7-6,80.6,67.2,50.0,59.4,51.8,44.3,82,60,40,30.08,29.98,8,1,8,0.00
2012-7-7,81.0,68.5,51.8,58.2,53.0,45.2,79,59,42,30.11,29.99,8,1,8,0.00
2012-7-8,85.3,71.9,55.1,64.5,55.7,48.3,80,58,40,30.04,29.93,8,1,8,0.00
2012-7-9,81.4,70.5,59.4,63.8,58.2,53.5,83,66,52,30.08,29.99,8,1,8,0.05
2012-7-10,76.7,64.7,56.0,61.1,54.7,49.7,81,71,55,30.15,30.03,6,0,6,0.00
2012-7-11,77.9,64.8,55.8,58.0,54.1,50.1,81,69,49,30.04,29.95,4,0,4,0.00
2012-7-12,82.6,72.2,55.3,63.6,58.5,49.8,82,63,47,29.97,29.92,8,1,8,0.00
2012-7-13,76.0,67.5,59.6,62.9,58.0,52.6,80,72,62,30.01,29.92,6,1,6,0.01
2012-7-14,81.0,69.9,59.8,66.3,60.8,55.6,88,74,57,29.94,29.88,7,0,7,0.00
2012-7-15,71.3,65.3,59.4,59.2,55.2,52.5,81,71,57,29.92,29.84,14,3,14,0.01
2012-7-16,80.3,67.6,54.4,62.6,57.1,50.2,89,71,52,29.90,29.76,10,1,10,0.00
2012-7-17,79.4,70.1,62.6,65.3,60.9,56.3,83,73,61,29.89,29.75,7,1,7,0.00
2012-7-18,75.4,66.9,59.9,62.3,58.0,54.5,84,73,62,30.02,29.88,8,1,8,0.00
2012-7-19,81.0,71.6,60.5,63.7,59.7,54.7,82,67,53,30.03,29.86,9,1,9,0.00
2012-7-20,70.6,65.6,60.1,62.6,58.8,56.2,87,79,69,30.16,29.91,12,2,12,0.42
2012-7-21,78.8,69.2,61.0,63.4,58.0,53.0,83,69,49,30.16,30.03,7,1,7,0.00
2012-7-22,70.4,61.7,55.4,57.5,52.4,48.6,82,72,56,30.10,30.02,10,2,10,0.01
2012-7-23,70.6,60.9,54.4,56.6,52.4,49.0,84,74,60,30.18,30.09,11,1,11,0.04
2012-7-24,73.8,63.9,51.7,59.4,53.2,46.8,86,69,51,30.12,29.97,9,1,9,0.00
2012-7-25,82.3,69.0,51.8,64.2,57.4,47.2,85,68,51,29.99,29.89,7,1,7,0.00
2012-7-26,83.2,72.1,57.2,65.6,59.8,52.1,84,66,52,29.95,29.87,6,1,6,0.00
2012-7-27,68.8,64.1,60.1,57.9,56.1,54.0,81,75,66,30.07,29.91,9,1,9,0.00
2012-7-28,76.3,65.8,58.3,61.3,56.1,52.4,84,72,54,30.12,30.07,6,1,6,0.00
2012-7-29,79.0,66.7,55.1,62.2,55.4,50.0,85,68,50,30.14,30.06,8,0,8,0.00
2012-7-30,70.6,63.3,56.9,58.2,54.8,50.6,83,74,65,30.13,30.07,6,1,6,0.00
2012-7-31,76.0,64.9,56.9,58.4,54.1,49.7,81,69,52,30.14,30.09,6,1,6,0.00
2012-8-1,77.4,65.1,50.0,60.9,53.8,45.0,86,68,52,30.17,30.10,10,1,10,0.00
2012-8-2,76.0,64.4,53.3,60.7,54.3,47.8,83,70,57,30.15,30.07,6,0,6,0.05
2012-8-3,80.1,67.3,53.3,63.7,57.0,48.9,86,71,54,30.09,29.95,8,1,8,0.00
2012-8-4,91.4,76.2,57.4,66.8,60.9,52.6,86,62,41,29.95,29.81,8,1,8,0.00
2012-8-5,94.7,80.0,62.5,70.0,63.8,56.9,83,60,39,29.96,29.84,7,1,7,0.00
2012-8-6,83.2,73.5,64.6,64.7,60.4,55.6,77,64,53,30.08,29.96,6,1,6,0.00
2012-8-7,72.9,66.3,60.3,63.0,59.2,54.6,84,78,71,30.05,30.00,6,1,6,0.00
2012-8-8,75.2,67.2,60.8,59.7,56.2,52.8,78,68,56,30.18,30.03,9,1,9,0.00
2012-8-9,76.7,65.9,52.4,60.4,54.9,47.7,87,69,52,30.17,30.05,10,1,10,0.00
2012-8-10,80.8,67.5,51.7,61.5,55.0,46.8,85,66,46,30.09,30.01,8,1,8,0.00
2012-8-11,81.7,69.6,53.3,63.2,56.0,48.6,86,64,41,30.05,29.94,10,1,10,0.00
2012-8-12,86.4,72.7,56.2,66.0,59.2,50.7,83,64,45,29.96,29.89,10,1,10,0.00
2012-8-13,87.8,72.0,56.5,65.7,55.8,45.2,84,60,31,30.00,29.93,9,1,9,0.00
2012-8-14,85.9,71.3,57.6,64.1,56.7,46.6,81,61,46,29.97,29.86,9,1,9,0.00
2012-8-15,86.8,72.5,56.2,64.3,57.9,50.7,85,62,42,29.94,29.84,9,1,9,0.00
2012-8-16,95.8,82.2,61.9,67.3,59.8,53.2,77,49,30,29.92,29.86,8,1,8,0.00
2012-8-17,93.8,77.7,59.4,67.8,61.3,52.9,81,59,39,29.95,29.88,5,1,5,0.00
2012-8-18,79.0,68.9,59.6,63.8,59.0,52.9,81,71,59,29.94,29.84,8,1,8,0.00
2012-8-19,78.5,68.3,60.1,62.4,58.0,52.4,81,70,55,29.99,29.90,8,1,8,0.00
2012-8-20,81.2,68.6,57.2,60.3,55.3,50.8,82,64,46,30.01,29.91,8,1,8,0.00
2012-8-21,75.6,65.0,54.7,59.2,53.6,48.2,81,67,54,30.00,29.91,6,1,6,0.00
2012-8-22,74.5,64.4,57.4,57.8,52.2,48.6,77,65,49,30.07,29.99,8,1,8,0.00
2012-8-23,71.5,61.0,56.7,55.7,49.6,45.7,77,67,52,30.06,29.99,8,1,8,0.00
2012-8-24,72.5,60.2,47.0,54.4,47.2,41.1,82,64,45,30.15,29.96,11,1,11,0.00
2012-8-25,80.8,64.7,46.3,57.8,50.6,40.8,85,62,42,29.96,29.70,8,1,8,0.00
2012-8-26,77.8,64.8,50.8,57.6,52.1,45.5,83,65,49,29.93,29.70,10,2,12,0.00
2012-8-27,78.5,67.9,56.2,58.7,52.7,48.0,81,60,41,30.02,29.92,8,1,8,0.00
2012-8-28,77.4,64.6,54.5,58.0,50.3,46.6,79,62,39,30.02,29.96,10,1,10,0.00
2012-8-29,78.1,65.9,56.9,57.9,52.5,47.9,79,64,45,30.10,30.02,10,1,10,0.00
2012-8-30,74.9,64.1,53.1,58.8,52.0,46.2,83,66,48,30.02,29.86,7,1,7,0.00
2012-8-31,74.3,61.3,47.7,55.5,48.4,41.9,83,64,48,29.94,29.86,8,1,8,0.00
2012-9-1,73.3,60.5,45.9,56.3,48.4,40.2,84,66,47,30.09,29.94,10,1,10,0.00
2012-9-2,72.4,59.6,46.4,56.3,47.9,41.1,84,67,47,30.14,30.08,8,0,8,0.00
2012-9-3,72.7,60.4,48.6,56.9,49.9,42.7,85,70,49,30.12,30.07,9,1,9,0.00
2012-9-4,77.4,63.0,47.3,58.6,51.2,42.6,86,67,46,30.15,30.06,8,1,8,0.00
2012-9-5,80.3,65.5,49.7,61.1,53.0,44.6,85,66,44,30.06,29.90,8,1,8,0.00
2012-9-6,82.3,67.0,51.3,61.4,53.0,46.4,89,64,40,30.02,29.91,9,1,9,0.00
2012-9-7,89.1,70.5,51.1,61.1,51.7,45.5,84,56,26,30.10,29.99,8,1,8,0.00
2012-9-8,85.0,69.3,53.1,61.4,53.8,46.6,81,60,39,30.00,29.89,10,2,10,0.00
2012-9-9,70.6,63.5,59.2,54.5,52.0,49.7,74,66,56,29.98,29.91,12,3,12,0.00
2012-9-10,70.6,59.4,51.1,55.5,48.5,41.1,85,68,45,30.17,29.91,13,2,13,0.18
2012-9-11,67.0,55.9,45.4,52.2,43.1,38.4,82,64,43,30.26,30.17,8,1,8,0.00
2012-9-12,71.3,55.3,39.6,49.7,42.9,34.5,85,65,42,30.31,30.19,7,1,7,0.00
2012-9-13,82.1,58.3,44.3,56.3,46.2,39.4,85,67,32,30.19,30.01,6,0,6,0.00
2012-9-14,81.0,64.4,48.4,59.0,49.6,42.9,82,61,38,30.04,29.98,7,0,7,0.00
2012-9-15,75.2,61.2,48.1,58.3,50.2,42.5,82,68,51,30.13,30.01,3,0,3,0.01
2012-9-16,75.2,61.2,47.5,57.7,50.7,42.3,85,70,51,30.17,30.08,6,0,6,0.00
2012-9-17,81.0,69.6,49.0,59.9,54.5,44.7,86,60,41,30.08,29.96,7,1,7,0.00
2012-9-18,83.5,66.2,50.8,61.3,53.0,46.1,84,65,44,30.03,29.96,5,0,5,0.00
2012-9-19,77.4,62.3,49.7,60.0,51.7,44.2,86,70,45,30.10,30.01,8,0,8,0.00
2012-9-20,73.4,60.2,48.8,60.0,51.8,44.1,88,75,59,30.06,29.97,7,1,7,0.00
2012-9-21,63.2,59.7,57.2,54.9,53.1,51.7,83,79,73,30.09,30.06,6,1,6,0.00
2012-9-22,67.0,59.8,50.9,55.5,52.5,46.1,88,77,62,30.11,30.06,4,0,4,0.04
2012-9-23,70.0,57.5,45.9,54.9,48.8,42.6,88,74,54,30.12,30.06,5,0,5,0.00
2012-9-24,72.4,59.4,46.4,56.4,49.7,42.2,87,72,54,30.09,30.04,7,0,7,0.00
2012-9-25,67.9,58.1,50.4,56.0,51.0,44.9,84,78,62,30.09,30.04,5,0,5,0.00
2012-9-26,68.8,55.2,44.1,55.8,48.0,40.1,88,77,59,30.06,29.99,6,0,6,0.00
2012-9-27,74.7,58.5,45.4,59.0,50.1,41.4,88,75,54,30.01,29.90,5,0,5,0.00
2012-9-28,75.2,61.9,50.9,61.2,52.7,46.0,87,73,48,29.97,29.88,5,0,5,0.00
2012-9-29,69.7,60.1,50.0,54.5,49.4,44.1,84,69,49,30.25,29.97,9,1,9,0.00
2012-9-30,69.1,53.5,41.4,52.9,43.6,36.9,87,71,41,30.35,30.24,6,0,6,0.00
2012-10-1,76.0,59.0,44.1,59.6,48.5,39.2,84,70,49,30.29,30.06,10,1,10,0.00
2012-10-2,64.1,55.6,43.2,48.5,39.7,29.9,85,59,32,30.22,30.10,9,1,9,0.00
2012-10-3,64.6,48.2,35.1,42.9,34.7,30.1,84,62,34,30.33,30.22,6,0,6,0.00
2012-10-4,65.7,50.3,35.5,44.5,36.0,29.5,83,61,34,30.26,30.19,7,0,7,0.00
2012-10-5,70.9,52.4,37.3,46.5,36.4,32.2,83,58,29,30.26,30.17,6,0,6,0.00
2012-10-6,73.3,54.3,38.7,47.3,36.9,32.4,79,56,26,30.20,30.06,7,1,7,0.00
2012-10-7,75.1,55.9,40.0,49.1,40.8,33.7,80,59,36,30.06,29.89,6,0,6,0.00
2012-10-8,71.3,54.4,40.3,50.8,42.2,34.7,83,65,44,29.99,29.89,5,0,5,0.00
2012-10-9,59.9,48.7,44.5,50.0,42.4,39.0,83,79,68,30.08,29.98,3,0,3,0.00
2012-10-10,55.6,51.0,43.4,48.2,45.2,39.3,86,80,76,29.98,29.93,1,0,1,0.00
2012-10-11,59.6,50.8,44.3,49.9,45.1,40.1,85,81,69,29.95,29.75,2,0,2,0.00
2012-10-12,57.6,52.8,43.2,51.9,48.3,38.8,90,85,81,29.94,29.76,10,2,10,0.15
2012-10-13,61.4,58.0,54.4,57.3,54.1,50.6,90,87,84,30.09,29.94,9,2,9,0.39
2012-10-14,63.4,60.0,57.8,59.2,56.7,54.5,90,89,86,30.06,29.82,8,1,8,0.41
2012-10-15,64.1,59.5,54.2,59.4,55.6,51.0,92,87,76,29.91,29.50,16,2,16,0.22
2012-10-16,64.8,55.5,47.7,57.5,48.5,43.2,88,78,57,30.23,29.51,11,2,11,0.11
2012-10-17,60.1,50.0,40.5,49.3,43.6,37.2,91,79,59,30.29,30.15,4,0,4,0.00
2012-10-18,68.6,54.2,42.8,53.7,47.2,39.1,88,78,58,30.16,29.76,7,1,7,0.63
2012-10-19,60.1,54.7,47.2,55.4,50.5,43.8,90,86,76,29.77,29.71,14,2,14,0.27
2012-10-20,52.0,46.4,43.2,44.0,41.3,37.9,88,82,70,29.85,29.74,11,2,11,0.04
2012-10-21,55.1,45.6,38.3,45.5,40.2,34.3,88,82,67,29.84,29.73,9,1,9,0.14
2012-10-22,46.1,40.9,35.3,42.8,37.5,31.7,89,88,86,29.73,29.51,3,0,3,0.31
2012-10-23,52.9,45.9,41.0,46.6,41.7,38.1,91,85,75,29.82,29.60,8,1,8,0.03
2012-10-24,53.1,45.9,41.8,47.4,41.8,38.2,90,86,76,30.11,29.79,6,0,6,0.27
2012-10-25,54.4,47.4,42.5,48.6,43.0,39.1,91,85,75,30.36,30.11,4,0,4,0.04
2012-10-26,51.5,46.1,42.8,48.0,42.7,39.3,90,88,82,30.26,29.96,8,1,8,0.14
2012-10-27,57.8,51.7,49.9,55.4,48.1,46.3,93,88,82,29.97,29.70,13,2,13,0.44
2012-10-28,61.0,57.0,53.1,55.9,53.1,50.1,92,87,78,29.90,29.71,14,2,14,0.24
2012-10-29,64.1,58.0,52.9,57.8,53.6,49.8,92,86,73,29.97,29.65,15,3,15,0.38
2012-10-30,60.7,56.3,54.0,58.3,53.7,51.0,92,91,88,29.93,29.71,5,0,5,1.33
2012-10-31,60.3,56.5,52.6,57.5,54.0,50.0,93,92,88,29.71,29.57,5,0,5,0.54
2012-11-1,60.3,54.6,51.8,56.3,51.8,49.1,93,90,86,29.97,29.67,6,0,6,0.35
2012-11-2,60.7,54.5,50.0,55.8,51.4,47.4,92,90,83,29.98,29.90,3,0,3,0.20
2012-11-3,58.5,55.1,52.7,55.7,52.7,50.4,93,91,89,30.12,29.90,13,1,13,0.13
2012-11-4,64.3,58.9,54.4,60.2,56.1,52.0,93,90,86,30.26,30.11,9,1,9,0.47
2012-11-5,58.9,52.9,45.2,54.5,48.4,42.0,92,85,69,30.35,30.10,6,0,6,0.05
2012-11-6,58.7,50.5,42.1,53.4,46.7,39.4,91,87,81,30.10,29.89,10,1,10,0.02
2012-11-7,52.9,47.5,38.9,47.2,42.9,35.3,90,84,74,30.07,29.91,8,1,8,0.21
2012-11-8,50.0,39.8,33.3,43.4,35.3,29.7,90,84,68,29.88,29.76,5,0,5,0.01
2012-11-9,47.2,38.1,30.2,40.0,33.2,27.5,90,83,71,29.88,29.77,4,0,4,0.00
2012-11-10,45.0,34.3,29.3,38.9,29.5,25.7,91,83,58,30.14,29.88,4,0,4,0.01
2012-11-11,46.8,38.9,30.2,40.3,34.7,26.6,88,85,77,30.16,30.00,9,0,9,0.39
2012-11-12,51.3,46.3,42.8,48.2,43.5,39.4,92,90,87,30.13,30.00,6,1,6,0.09
2012-11-13,54.0,49.2,46.8,49.9,46.5,44.4,92,90,86,30.14,30.05,4,0,4,0.33
2012-11-14,54.4,47.0,37.6,49.1,43.5,34.9,92,88,78,30.26,30.11,4,0,4,0.01
2012-11-15,50.4,40.0,33.1,46.1,37.0,30.8,93,89,83,30.21,29.88,2,0,2,0.01
2012-11-16,49.3,42.1,35.8,44.6,39.6,33.7,93,91,83,29.88,29.65,6,0,6,0.16
2012-11-17,56.3,49.0,41.8,45.6,42.5,38.0,88,79,66,29.66,29.41,14,3,14,0.22
2012-11-18,48.8,45.5,43.2,44.9,41.8,39.1,89,87,83,29.72,29.49,13,2,13,0.52
2012-11-19,54.2,50.0,46.6,51.0,46.7,43.3,91,88,82,29.64,29.30,17,2,17,2.04
2012-11-20,50.9,47.0,42.5,47.8,44.0,39.5,92,89,85,29.65,29.48,14,1,14,0.25
2012-11-21,46.3,44.6,42.8,42.5,40.6,39.3,90,86,85,30.23,29.47,14,3,14,0.21
2012-11-22,49.3,43.4,40.1,41.9,38.5,37.1,89,83,64,30.31,30.14,4,0,4,0.00
2012-11-23,49.0,46.1,44.6,46.4,42.5,39.4,91,87,77,30.16,29.98,6,0,6,1.19
2012-11-24,50.8,44.5,39.6,47.0,41.7,36.7,91,90,85,30.21,30.07,1,0,1,0.02
2012-11-25,45.7,39.1,34.9,42.4,36.3,32.0,92,89,82,30.30,30.16,4,0,4,0.01
2012-11-26,47.9,35.5,31.3,41.1,32.4,28.9,92,89,74,30.17,29.99,4,0,4,0.01
2012-11-27,49.9,37.1,32.8,42.6,33.3,29.9,89,86,76,30.02,29.81,1,0,1,0.00
2012-11-28,47.9,42.4,36.5,43.6,38.8,32.9,90,87,84,29.82,29.56,7,0,7,0.14
2012-11-29,52.6,48.9,44.6,46.5,43.6,41.7,90,82,72,29.67,29.39,14,2,14,0.15
2012-11-30,57.1,48.6,46.6,50.0,44.7,42.1,90,86,73,29.42,29.32,7,1,7,1.24
2012-12-1,54.4,50.1,46.6,46.0,43.3,40.3,91,77,69,29.58,29.23,16,2,16,0.20
2012-12-2,48.2,46.3,45.0,44.6,42.5,41.1,91,87,78,29.75,29.13,12,3,12,0.62
2012-12-3,49.3,46.6,45.0,45.3,43.1,41.7,89,88,84,29.95,29.59,23,3,23,0.41
2012-12-4,53.5,48.7,45.4,49.6,45.4,41.5,91,88,80,29.78,29.48,13,3,13,0.45
2012-12-5,49.7,44.5,40.9,41.5,38.6,36.3,85,80,72,30.14,29.78,7,2,7,0.00
2012-12-6,46.4,44.1,42.1,41.8,40.0,38.5,89,86,81,30.06,29.98,12,2,12,0.12
2012-12-7,46.4,42.8,38.3,42.9,38.3,32.7,89,84,67,30.08,29.89,13,2,13,0.05
2012-12-8,44.1,39.0,36.7,39.4,35.3,33.1,89,87,83,30.28,30.07,4,0,4,0.06
2012-12-9,42.1,39.7,36.7,40.0,36.9,33.8,92,90,88,30.30,30.21,4,0,4,0.28
2012-12-10,45.4,42.6,41.0,42.8,40.4,38.8,93,92,90,30.34,30.02,3,0,3,0.00
2012-12-11,45.7,43.5,42.5,42.4,40.7,39.8,92,90,87,30.02,29.50,8,1,8,0.26
2012-12-12,43.4,42.1,40.9,41.0,39.7,38.3,92,91,90,29.96,29.55,4,0,4,0.49
2012-12-13,45.7,41.8,39.6,42.0,38.5,37.0,92,88,81,29.96,29.75,5,0,5,0.18
2012-12-14,43.6,38.2,32.8,40.2,35.3,30.2,90,89,86,29.90,29.72,3,0,3,0.27
2012-12-15,40.7,36.4,31.3,37.5,33.2,28.5,91,88,80,29.87,29.50,12,2,12,0.19
2012-12-16,43.2,40.1,38.9,40.5,36.7,35.0,90,87,85,29.69,28.94,16,3,16,0.60
2012-12-17,45.4,41.6,37.1,42.9,36.8,31.7,91,83,75,29.82,28.89,22,3,22,0.13
2012-12-18,40.0,37.5,35.3,34.9,32.8,31.2,88,83,78,29.93,29.81,12,2,12,0.04
2012-12-19,40.0,38.4,35.6,37.3,34.1,30.1,90,84,74,29.89,29.50,11,2,11,0.68
2012-12-20,42.5,39.7,31.9,39.5,36.9,29.1,90,89,87,29.76,29.45,9,1,9,0.70
2012-12-21,31.9,30.7,29.5,29.1,28.0,26.7,90,89,89,29.75,29.71,1,0,1,0.00
2012-12-26,45.0,43.2,42.1,40.8,39.5,38.5,89,87,83,29.85,29.71,9,1,9,0.18
2012-12-27,45.4,42.5,38.9,42.4,39.8,36.0,91,90,88,30.11,29.85,5,1,5,0.26
2012-12-28,49.3,42.2,37.8,43.5,38.1,34.9,91,86,75,30.11,30.05,4,0,4,0.01
2012-12-29,41.6,39.2,37.4,37.8,36.1,34.2,91,89,86,30.17,30.09,2,0,2,0.12
2012-12-30,39.4,36.5,33.3,37.0,33.8,30.5,92,90,88,30.27,30.16,3,0,3,0.00
2012-12-31,40.0,34.6,31.0,35.9,31.6,28.2,91,89,84,30.38,30.18,2,0,2,0.01
2013-1-1,41.0,32.8,27.9,35.9,29.4,25.1,90,87,80,30.43,30.27,3,0,3,0.01